sensor_id;sensor_type;location;lat;lon;timestamp;P1;durP1;ratioP1;P2;durP2;ratioP2
3197;SDS011;1611;49.394;11.136;2023-02-18T00:01:31;3.70;;;3.50;;
3197;SDS011;1611;49.394;11.136;2023-02-18T00:03:58;4.43;;;4.20;;
3197;SDS011;1611;49.394;11.136;2023-02-18T00:06:26;3.37;;;3.17;;
3197;SDS011;1611;49.394;11.136;2023-02-18T00:08:54;3.73;;;3.53;;
3197;SDS011;1611;49.394;11.136;2023-02-18T00:11:25;3.40;;;3.20;;
3197;SDS011;1611;49.394;11.136;2023-02-18T00:13:52;3.90;;;3.60;;
3197;SDS011;1611;49.394;11.136;2023-02-18T00:16:21;3.23;;;3.03;;
3197;SDS011;1611;49.394;11.136;2023-02-18T00:18:49;3.93;;;3.73;;
3197;SDS011;1611;49.394;11.136;2023-02-18T00:21:15;3.80;;;3.60;;
3197;SDS011;1611;49.394;11.136;2023-02-18T00:23:42;3.83;;;3.53;;
3197;SDS011;1611;49.394;11.136;2023-02-18T00:26:09;3.67;;;3.30;;
3197;SDS011;1611;49.394;11.136;2023-02-18T00:28:39;4.10;;;3.80;;
3197;SDS011;1611;49.394;11.136;2023-02-18T00:31:06;4.00;;;3.60;;
3197;SDS011;1611;49.394;11.136;2023-02-18T00:33:33;3.90;;;3.37;;
3197;SDS011;1611;49.394;11.136;2023-02-18T00:36:01;3.90;;;3.70;;
3197;SDS011;1611;49.394;11.136;2023-02-18T00:38:29;4.40;;;4.10;;
3197;SDS011;1611;49.394;11.136;2023-02-18T00:40:56;4.17;;;3.80;;
3197;SDS011;1611;49.394;11.136;2023-02-18T00:43:24;5.80;;;3.70;;
3197;SDS011;1611;49.394;11.136;2023-02-18T00:45:52;4.27;;;3.87;;
3197;SDS011;1611;49.394;11.136;2023-02-18T00:48:19;8.53;;;4.37;;
3197;SDS011;1611;49.394;11.136;2023-02-18T00:50:46;3.93;;;3.73;;
3197;SDS011;1611;49.394;11.136;2023-02-18T00:53:13;4.10;;;3.83;;
3197;SDS011;1611;49.394;11.136;2023-02-18T00:55:40;4.27;;;3.97;;
3197;SDS011;1611;49.394;11.136;2023-02-18T00:58:08;3.70;;;3.40;;
3197;SDS011;1611;49.394;11.136;2023-02-18T01:00:35;4.67;;;4.37;;
3197;SDS011;1611;49.394;11.136;2023-02-18T01:03:04;3.93;;;3.73;;
3197;SDS011;1611;49.394;11.136;2023-02-18T01:05:32;3.90;;;3.70;;
3197;SDS011;1611;49.394;11.136;2023-02-18T01:08:00;4.33;;;3.83;;
3197;SDS011;1611;49.394;11.136;2023-02-18T01:10:27;5.50;;;5.00;;
3197;SDS011;1611;49.394;11.136;2023-02-18T01:12:53;4.93;;;4.63;;
3197;SDS011;1611;49.394;11.136;2023-02-18T01:15:21;3.93;;;3.63;;
3197;SDS011;1611;49.394;11.136;2023-02-18T01:17:48;4.73;;;4.30;;
3197;SDS011;1611;49.394;11.136;2023-02-18T01:20:18;5.00;;;4.70;;
3197;SDS011;1611;49.394;11.136;2023-02-18T01:22:45;5.03;;;4.73;;
3197;SDS011;1611;49.394;11.136;2023-02-18T01:25:12;4.87;;;4.47;;
3197;SDS011;1611;49.394;11.136;2023-02-18T01:27:39;4.87;;;4.47;;
3197;SDS011;1611;49.394;11.136;2023-02-18T01:30:07;5.33;;;4.90;;
3197;SDS011;1611;49.394;11.136;2023-02-18T01:32:36;5.10;;;4.70;;
3197;SDS011;1611;49.394;11.136;2023-02-18T01:35:03;4.50;;;4.20;;
3197;SDS011;1611;49.394;11.136;2023-02-18T01:37:33;4.60;;;4.30;;
3197;SDS011;1611;49.394;11.136;2023-02-18T01:40:00;5.23;;;4.83;;
3197;SDS011;1611;49.394;11.136;2023-02-18T01:42:27;4.60;;;4.20;;
3197;SDS011;1611;49.394;11.136;2023-02-18T01:45:23;4.70;;;4.30;;
3197;SDS011;1611;49.394;11.136;2023-02-18T01:48:16;4.03;;;3.83;;
3197;SDS011;1611;49.394;11.136;2023-02-18T01:50:45;4.03;;;3.83;;
3197;SDS011;1611;49.394;11.136;2023-02-18T01:53:17;4.83;;;4.53;;
3197;SDS011;1611;49.394;11.136;2023-02-18T01:55:47;6.50;;;4.80;;
3197;SDS011;1611;49.394;11.136;2023-02-18T01:58:14;8.13;;;4.63;;
3197;SDS011;1611;49.394;11.136;2023-02-18T02:00:41;4.90;;;4.60;;
3197;SDS011;1611;49.394;11.136;2023-02-18T02:03:08;4.97;;;4.67;;
3197;SDS011;1611;49.394;11.136;2023-02-18T02:05:35;4.17;;;3.87;;
3197;SDS011;1611;49.394;11.136;2023-02-18T02:08:02;5.83;;;4.83;;
3197;SDS011;1611;49.394;11.136;2023-02-18T02:10:34;4.53;;;4.10;;
3197;SDS011;1611;49.394;11.136;2023-02-18T02:13:13;4.70;;;4.30;;
3197;SDS011;1611;49.394;11.136;2023-02-18T02:15:46;4.27;;;4.07;;
3197;SDS011;1611;49.394;11.136;2023-02-18T02:18:25;4.40;;;4.10;;
3197;SDS011;1611;49.394;11.136;2023-02-18T02:21:13;4.60;;;4.30;;
3197;SDS011;1611;49.394;11.136;2023-02-18T02:27:10;5.40;;;5.00;;
3197;SDS011;1611;49.394;11.136;2023-02-18T02:35:42;4.57;;;4.27;;
3197;SDS011;1611;49.394;11.136;2023-02-18T02:38:13;4.20;;;3.90;;
3197;SDS011;1611;49.394;11.136;2023-02-18T02:40:45;5.20;;;4.83;;
3197;SDS011;1611;49.394;11.136;2023-02-18T02:43:18;4.77;;;4.47;;
3197;SDS011;1611;49.394;11.136;2023-02-18T02:45:53;5.13;;;4.80;;
3197;SDS011;1611;49.394;11.136;2023-02-18T02:48:26;5.67;;;5.17;;
3197;SDS011;1611;49.394;11.136;2023-02-18T02:51:01;4.63;;;4.33;;
3197;SDS011;1611;49.394;11.136;2023-02-18T02:53:32;5.77;;;5.17;;
3197;SDS011;1611;49.394;11.136;2023-02-18T02:56:02;5.00;;;4.60;;
3197;SDS011;1611;49.394;11.136;2023-02-18T02:58:29;5.00;;;4.70;;
3197;SDS011;1611;49.394;11.136;2023-02-18T03:01:01;5.10;;;4.70;;
3197;SDS011;1611;49.394;11.136;2023-02-18T03:09:42;6.37;;;4.37;;
3197;SDS011;1611;49.394;11.136;2023-02-18T03:12:25;5.77;;;5.23;;
3197;SDS011;1611;49.394;11.136;2023-02-18T03:15:01;4.57;;;4.37;;
3197;SDS011;1611;49.394;11.136;2023-02-18T03:17:34;4.43;;;4.07;;
3197;SDS011;1611;49.394;11.136;2023-02-18T03:20:05;4.50;;;4.20;;
3197;SDS011;1611;49.394;11.136;2023-02-18T03:22:36;5.03;;;4.50;;
3197;SDS011;1611;49.394;11.136;2023-02-18T03:25:06;4.20;;;3.90;;
3197;SDS011;1611;49.394;11.136;2023-02-18T03:27:36;5.00;;;4.60;;
3197;SDS011;1611;49.394;11.136;2023-02-18T03:30:09;4.70;;;4.33;;
3197;SDS011;1611;49.394;11.136;2023-02-18T03:32:40;4.07;;;3.87;;
3197;SDS011;1611;49.394;11.136;2023-02-18T03:35:09;4.30;;;3.90;;
3197;SDS011;1611;49.394;11.136;2023-02-18T03:37:41;4.23;;;4.03;;
3197;SDS011;1611;49.394;11.136;2023-02-18T03:40:12;4.20;;;4.00;;
3197;SDS011;1611;49.394;11.136;2023-02-18T03:42:40;4.10;;;3.80;;
3197;SDS011;1611;49.394;11.136;2023-02-18T03:45:07;3.57;;;3.37;;
3197;SDS011;1611;49.394;11.136;2023-02-18T03:47:34;4.70;;;4.27;;
3197;SDS011;1611;49.394;11.136;2023-02-18T03:50:01;4.60;;;4.30;;
3197;SDS011;1611;49.394;11.136;2023-02-18T03:52:27;3.73;;;3.53;;
3197;SDS011;1611;49.394;11.136;2023-02-18T03:54:56;4.23;;;3.93;;
3197;SDS011;1611;49.394;11.136;2023-02-18T03:57:22;3.80;;;3.60;;
3197;SDS011;1611;49.394;11.136;2023-02-18T03:59:49;3.83;;;3.50;;
3197;SDS011;1611;49.394;11.136;2023-02-18T04:02:16;3.97;;;3.77;;
3197;SDS011;1611;49.394;11.136;2023-02-18T04:04:42;3.77;;;3.60;;
3197;SDS011;1611;49.394;11.136;2023-02-18T04:07:09;3.80;;;3.60;;
3197;SDS011;1611;49.394;11.136;2023-02-18T04:09:36;4.50;;;4.10;;
3197;SDS011;1611;49.394;11.136;2023-02-18T04:12:04;4.60;;;4.40;;
3197;SDS011;1611;49.394;11.136;2023-02-18T04:14:31;4.23;;;4.00;;
3197;SDS011;1611;49.394;11.136;2023-02-18T04:16:58;4.70;;;4.40;;
3197;SDS011;1611;49.394;11.136;2023-02-18T04:19:25;4.40;;;3.97;;
3197;SDS011;1611;49.394;11.136;2023-02-18T04:21:52;4.70;;;4.40;;
3197;SDS011;1611;49.394;11.136;2023-02-18T04:24:19;5.20;;;4.90;;
3197;SDS011;1611;49.394;11.136;2023-02-18T04:26:45;4.50;;;4.20;;
3197;SDS011;1611;49.394;11.136;2023-02-18T04:29:13;5.03;;;4.73;;
3197;SDS011;1611;49.394;11.136;2023-02-18T04:31:40;5.03;;;4.73;;
3197;SDS011;1611;49.394;11.136;2023-02-18T04:34:07;6.00;;;5.50;;
3197;SDS011;1611;49.394;11.136;2023-02-18T04:36:34;4.87;;;4.57;;
3197;SDS011;1611;49.394;11.136;2023-02-18T04:39:00;5.70;;;5.00;;
3197;SDS011;1611;49.394;11.136;2023-02-18T04:41:27;5.13;;;4.73;;
3197;SDS011;1611;49.394;11.136;2023-02-18T04:43:54;5.30;;;4.90;;
3197;SDS011;1611;49.394;11.136;2023-02-18T04:46:22;6.07;;;5.37;;
3197;SDS011;1611;49.394;11.136;2023-02-18T04:48:49;4.60;;;4.20;;
3197;SDS011;1611;49.394;11.136;2023-02-18T04:51:15;6.00;;;5.50;;
3197;SDS011;1611;49.394;11.136;2023-02-18T04:53:42;5.23;;;4.83;;
3197;SDS011;1611;49.394;11.136;2023-02-18T04:56:10;5.30;;;4.83;;
3197;SDS011;1611;49.394;11.136;2023-02-18T04:58:36;6.03;;;4.40;;
3197;SDS011;1611;49.394;11.136;2023-02-18T05:01:03;4.50;;;4.20;;
3197;SDS011;1611;49.394;11.136;2023-02-18T05:03:32;5.67;;;5.27;;
3197;SDS011;1611;49.394;11.136;2023-02-18T05:05:59;4.70;;;4.40;;
3197;SDS011;1611;49.394;11.136;2023-02-18T05:08:25;4.20;;;4.00;;
3197;SDS011;1611;49.394;11.136;2023-02-18T05:10:52;9.27;;;4.60;;
3197;SDS011;1611;49.394;11.136;2023-02-18T05:13:19;4.77;;;4.40;;
3197;SDS011;1611;49.394;11.136;2023-02-18T05:15:46;4.33;;;4.00;;
3197;SDS011;1611;49.394;11.136;2023-02-18T05:18:13;4.23;;;4.03;;
3197;SDS011;1611;49.394;11.136;2023-02-18T05:20:41;4.87;;;4.47;;
3197;SDS011;1611;49.394;11.136;2023-02-18T05:23:09;4.80;;;4.47;;
3197;SDS011;1611;49.394;11.136;2023-02-18T05:25:35;4.57;;;4.27;;
3197;SDS011;1611;49.394;11.136;2023-02-18T05:28:02;3.90;;;3.60;;
3197;SDS011;1611;49.394;11.136;2023-02-18T05:30:29;4.97;;;4.40;;
3197;SDS011;1611;49.394;11.136;2023-02-18T05:32:56;4.90;;;4.50;;
3197;SDS011;1611;49.394;11.136;2023-02-18T05:35:23;4.13;;;3.87;;
3197;SDS011;1611;49.394;11.136;2023-02-18T05:37:51;5.03;;;4.13;;
3197;SDS011;1611;49.394;11.136;2023-02-18T05:40:17;5.07;;;4.60;;
3197;SDS011;1611;49.394;11.136;2023-02-18T05:42:44;4.80;;;4.40;;
3197;SDS011;1611;49.394;11.136;2023-02-18T05:45:11;5.03;;;4.63;;
3197;SDS011;1611;49.394;11.136;2023-02-18T05:47:38;5.10;;;4.70;;
3197;SDS011;1611;49.394;11.136;2023-02-18T05:50:05;5.80;;;5.30;;
3197;SDS011;1611;49.394;11.136;2023-02-18T05:52:33;7.00;;;6.30;;
3197;SDS011;1611;49.394;11.136;2023-02-18T05:55:01;5.77;;;5.40;;
3197;SDS011;1611;49.394;11.136;2023-02-18T05:57:28;6.13;;;5.60;;
3197;SDS011;1611;49.394;11.136;2023-02-18T05:59:55;5.97;;;5.43;;
3197;SDS011;1611;49.394;11.136;2023-02-18T06:02:21;5.30;;;4.90;;
3197;SDS011;1611;49.394;11.136;2023-02-18T06:04:48;5.70;;;5.20;;
3197;SDS011;1611;49.394;11.136;2023-02-18T06:07:15;5.80;;;5.30;;
3197;SDS011;1611;49.394;11.136;2023-02-18T06:09:44;5.43;;;5.03;;
3197;SDS011;1611;49.394;11.136;2023-02-18T06:12:13;5.73;;;5.33;;
3197;SDS011;1611;49.394;11.136;2023-02-18T06:14:40;6.67;;;5.53;;
3197;SDS011;1611;49.394;11.136;2023-02-18T06:17:07;6.63;;;5.97;;
3197;SDS011;1611;49.394;11.136;2023-02-18T06:19:33;6.97;;;6.27;;
3197;SDS011;1611;49.394;11.136;2023-02-18T06:22:00;6.70;;;6.10;;
3197;SDS011;1611;49.394;11.136;2023-02-18T06:24:27;8.10;;;5.87;;
3197;SDS011;1611;49.394;11.136;2023-02-18T06:26:54;7.80;;;5.70;;
3197;SDS011;1611;49.394;11.136;2023-02-18T06:29:22;6.70;;;6.10;;
3197;SDS011;1611;49.394;11.136;2023-02-18T06:31:49;5.87;;;5.47;;
3197;SDS011;1611;49.394;11.136;2023-02-18T06:34:16;6.00;;;5.47;;
3197;SDS011;1611;49.394;11.136;2023-02-18T06:36:42;7.37;;;5.77;;
3197;SDS011;1611;49.394;11.136;2023-02-18T06:39:09;7.10;;;5.47;;
3197;SDS011;1611;49.394;11.136;2023-02-18T06:41:36;6.40;;;5.87;;
3197;SDS011;1611;49.394;11.136;2023-02-18T06:44:04;6.60;;;6.00;;
3197;SDS011;1611;49.394;11.136;2023-02-18T06:46:32;5.50;;;5.10;;
3197;SDS011;1611;49.394;11.136;2023-02-18T06:48:59;7.07;;;6.30;;
3197;SDS011;1611;49.394;11.136;2023-02-18T06:51:26;6.23;;;5.73;;
3197;SDS011;1611;49.394;11.136;2023-02-18T06:53:53;6.60;;;6.10;;
3197;SDS011;1611;49.394;11.136;2023-02-18T06:56:19;8.30;;;7.60;;
3197;SDS011;1611;49.394;11.136;2023-02-18T06:58:46;7.53;;;6.10;;
3197;SDS011;1611;49.394;11.136;2023-02-18T07:01:13;7.50;;;6.80;;
3197;SDS011;1611;49.394;11.136;2023-02-18T07:03:41;7.53;;;6.93;;
3197;SDS011;1611;49.394;11.136;2023-02-18T07:06:08;8.03;;;6.73;;
3197;SDS011;1611;49.394;11.136;2023-02-18T07:08:35;7.40;;;6.77;;
3197;SDS011;1611;49.394;11.136;2023-02-18T07:11:03;8.97;;;7.30;;
3197;SDS011;1611;49.394;11.136;2023-02-18T07:13:30;9.73;;;7.37;;
3197;SDS011;1611;49.394;11.136;2023-02-18T07:15:56;7.73;;;7.07;;
3197;SDS011;1611;49.394;11.136;2023-02-18T07:18:23;8.20;;;7.40;;
3197;SDS011;1611;49.394;11.136;2023-02-18T07:20:51;7.77;;;7.07;;
3197;SDS011;1611;49.394;11.136;2023-02-18T07:23:18;8.87;;;8.00;;
3197;SDS011;1611;49.394;11.136;2023-02-18T07:25:45;11.27;;;9.17;;
3197;SDS011;1611;49.394;11.136;2023-02-18T07:28:11;9.43;;;8.50;;
3197;SDS011;1611;49.394;11.136;2023-02-18T07:30:38;10.20;;;9.20;;
3197;SDS011;1611;49.394;11.136;2023-02-18T07:33:05;10.50;;;8.93;;
3197;SDS011;1611;49.394;11.136;2023-02-18T07:35:32;9.87;;;8.97;;
3197;SDS011;1611;49.394;11.136;2023-02-18T07:38:00;10.27;;;9.33;;
3197;SDS011;1611;49.394;11.136;2023-02-18T07:40:27;9.43;;;8.53;;
3197;SDS011;1611;49.394;11.136;2023-02-18T07:42:54;11.07;;;9.90;;
3197;SDS011;1611;49.394;11.136;2023-02-18T07:45:21;12.70;;;9.60;;
3197;SDS011;1611;49.394;11.136;2023-02-18T07:47:47;10.03;;;9.07;;
3197;SDS011;1611;49.394;11.136;2023-02-18T07:50:14;10.17;;;9.17;;
3197;SDS011;1611;49.394;11.136;2023-02-18T07:52:41;9.90;;;8.50;;
3197;SDS011;1611;49.394;11.136;2023-02-18T07:55:09;9.67;;;8.70;;
3197;SDS011;1611;49.394;11.136;2023-02-18T07:57:36;8.57;;;7.77;;
3197;SDS011;1611;49.394;11.136;2023-02-18T08:00:21;8.77;;;7.87;;
3197;SDS011;1611;49.394;11.136;2023-02-18T08:02:48;8.13;;;7.43;;
3197;SDS011;1611;49.394;11.136;2023-02-18T08:05:15;8.17;;;7.37;;
3197;SDS011;1611;49.394;11.136;2023-02-18T08:07:42;7.60;;;7.00;;
3197;SDS011;1611;49.394;11.136;2023-02-18T08:10:10;7.20;;;6.57;;
3197;SDS011;1611;49.394;11.136;2023-02-18T08:12:37;7.80;;;7.07;;
3197;SDS011;1611;49.394;11.136;2023-02-18T08:15:03;7.57;;;6.80;;
3197;SDS011;1611;49.394;11.136;2023-02-18T08:17:30;10.00;;;7.40;;
3197;SDS011;1611;49.394;11.136;2023-02-18T08:19:57;7.00;;;6.33;;
3197;SDS011;1611;49.394;11.136;2023-02-18T08:22:24;7.53;;;6.27;;
3197;SDS011;1611;49.394;11.136;2023-02-18T08:24:52;7.10;;;6.40;;
3197;SDS011;1611;49.394;11.136;2023-02-18T08:27:20;9.20;;;6.77;;
3197;SDS011;1611;49.394;11.136;2023-02-18T08:29:47;7.07;;;6.47;;
3197;SDS011;1611;49.394;11.136;2023-02-18T08:32:14;6.90;;;6.07;;
3197;SDS011;1611;49.394;11.136;2023-02-18T08:34:41;6.30;;;5.80;;
3197;SDS011;1611;49.394;11.136;2023-02-18T08:37:08;8.93;;;6.30;;
3197;SDS011;1611;49.394;11.136;2023-02-18T08:39:35;7.60;;;6.90;;
3197;SDS011;1611;49.394;11.136;2023-02-18T08:42:02;6.40;;;5.87;;
3197;SDS011;1611;49.394;11.136;2023-02-18T08:44:31;6.43;;;5.83;;
3197;SDS011;1611;49.394;11.136;2023-02-18T08:46:57;6.77;;;6.17;;
3197;SDS011;1611;49.394;11.136;2023-02-18T08:49:24;5.90;;;5.43;;
3197;SDS011;1611;49.394;11.136;2023-02-18T08:51:51;6.10;;;5.60;;
3197;SDS011;1611;49.394;11.136;2023-02-18T08:54:18;5.73;;;5.23;;
3197;SDS011;1611;49.394;11.136;2023-02-18T08:56:45;5.77;;;5.27;;
3197;SDS011;1611;49.394;11.136;2023-02-18T08:59:12;5.23;;;4.83;;
3197;SDS011;1611;49.394;11.136;2023-02-18T09:01:40;6.27;;;5.67;;
3197;SDS011;1611;49.394;11.136;2023-02-18T09:04:07;5.50;;;5.07;;
3197;SDS011;1611;49.394;11.136;2023-02-18T09:06:35;5.97;;;5.47;;
3197;SDS011;1611;49.394;11.136;2023-02-18T09:09:02;5.73;;;4.90;;
3197;SDS011;1611;49.394;11.136;2023-02-18T09:11:29;5.23;;;4.87;;
3197;SDS011;1611;49.394;11.136;2023-02-18T09:13:56;3.80;;;3.60;;
3197;SDS011;1611;49.394;11.136;2023-02-18T09:16:23;3.97;;;3.73;;
3197;SDS011;1611;49.394;11.136;2023-02-18T09:18:53;4.10;;;3.80;;
3197;SDS011;1611;49.394;11.136;2023-02-18T09:21:21;3.90;;;3.63;;
3197;SDS011;1611;49.394;11.136;2023-02-18T09:23:48;4.63;;;4.03;;
3197;SDS011;1611;49.394;11.136;2023-02-18T09:26:16;4.23;;;3.83;;
3197;SDS011;1611;49.394;11.136;2023-02-18T09:28:45;3.87;;;3.67;;
3197;SDS011;1611;49.394;11.136;2023-02-18T09:31:14;5.03;;;4.10;;
3197;SDS011;1611;49.394;11.136;2023-02-18T09:33:43;3.70;;;3.50;;
3197;SDS011;1611;49.394;11.136;2023-02-18T09:36:12;3.93;;;3.63;;
3197;SDS011;1611;49.394;11.136;2023-02-18T09:38:39;3.70;;;3.03;;
3197;SDS011;1611;49.394;11.136;2023-02-18T09:41:08;3.10;;;3.00;;
3197;SDS011;1611;49.394;11.136;2023-02-18T09:43:40;3.53;;;3.33;;
3197;SDS011;1611;49.394;11.136;2023-02-18T09:46:17;3.27;;;3.07;;
3197;SDS011;1611;49.394;11.136;2023-02-18T09:48:46;3.03;;;2.87;;
3197;SDS011;1611;49.394;11.136;2023-02-18T09:51:15;4.97;;;3.40;;
3197;SDS011;1611;49.394;11.136;2023-02-18T09:53:43;3.20;;;2.97;;
3197;SDS011;1611;49.394;11.136;2023-02-18T09:56:11;3.43;;;3.13;;
3197;SDS011;1611;49.394;11.136;2023-02-18T09:58:40;3.60;;;3.40;;
3197;SDS011;1611;49.394;11.136;2023-02-18T10:01:10;3.63;;;3.43;;
3197;SDS011;1611;49.394;11.136;2023-02-18T10:03:41;4.10;;;3.60;;
3197;SDS011;1611;49.394;11.136;2023-02-18T10:06:09;2.93;;;2.80;;
3197;SDS011;1611;49.394;11.136;2023-02-18T10:08:43;3.33;;;3.13;;
3197;SDS011;1611;49.394;11.136;2023-02-18T10:11:12;4.10;;;3.80;;
3197;SDS011;1611;49.394;11.136;2023-02-18T10:13:41;3.20;;;2.90;;
3197;SDS011;1611;49.394;11.136;2023-02-18T10:16:09;3.83;;;3.27;;
3197;SDS011;1611;49.394;11.136;2023-02-18T10:18:43;3.20;;;3.00;;
3197;SDS011;1611;49.394;11.136;2023-02-18T10:21:14;3.27;;;3.07;;
3197;SDS011;1611;49.394;11.136;2023-02-18T10:23:49;2.70;;;2.60;;
3197;SDS011;1611;49.394;11.136;2023-02-18T10:26:22;3.83;;;3.47;;
3197;SDS011;1611;49.394;11.136;2023-02-18T10:28:49;3.43;;;3.13;;
3197;SDS011;1611;49.394;11.136;2023-02-18T10:31:17;4.73;;;3.13;;
3197;SDS011;1611;49.394;11.136;2023-02-18T10:33:51;3.33;;;3.13;;
3197;SDS011;1611;49.394;11.136;2023-02-18T10:36:24;3.30;;;3.10;;
3197;SDS011;1611;49.394;11.136;2023-02-18T10:39:02;5.60;;;3.00;;
3197;SDS011;1611;49.394;11.136;2023-02-18T10:41:46;3.30;;;2.87;;
3197;SDS011;1611;49.394;11.136;2023-02-18T10:44:20;3.97;;;3.40;;
3197;SDS011;1611;49.394;11.136;2023-02-18T10:46:56;4.00;;;3.10;;
3197;SDS011;1611;49.394;11.136;2023-02-18T10:49:30;4.83;;;3.43;;
3197;SDS011;1611;49.394;11.136;2023-02-18T10:52:15;3.60;;;3.37;;
3197;SDS011;1611;49.394;11.136;2023-02-18T10:54:52;4.23;;;3.70;;
3197;SDS011;1611;49.394;11.136;2023-02-18T10:57:24;3.50;;;3.30;;
3197;SDS011;1611;49.394;11.136;2023-02-18T10:59:55;5.13;;;3.00;;
3197;SDS011;1611;49.394;11.136;2023-02-18T11:02:23;3.10;;;2.80;;
3197;SDS011;1611;49.394;11.136;2023-02-18T11:04:54;5.20;;;3.57;;
3197;SDS011;1611;49.394;11.136;2023-02-18T11:07:24;3.97;;;3.67;;
3197;SDS011;1611;49.394;11.136;2023-02-18T11:09:56;3.60;;;3.33;;
3197;SDS011;1611;49.394;11.136;2023-02-18T11:12:26;6.73;;;3.33;;
3197;SDS011;1611;49.394;11.136;2023-02-18T11:15:03;7.07;;;4.07;;
3197;SDS011;1611;49.394;11.136;2023-02-18T11:17:33;4.10;;;3.40;;
3197;SDS011;1611;49.394;11.136;2023-02-18T11:20:02;3.70;;;3.20;;
3197;SDS011;1611;49.394;11.136;2023-02-18T11:22:47;4.07;;;3.37;;
3197;SDS011;1611;49.394;11.136;2023-02-18T11:25:19;3.70;;;3.50;;
3197;SDS011;1611;49.394;11.136;2023-02-18T11:27:47;3.80;;;3.60;;
3197;SDS011;1611;49.394;11.136;2023-02-18T11:30:18;4.63;;;4.23;;
3197;SDS011;1611;49.394;11.136;2023-02-18T11:32:47;3.83;;;3.53;;
3197;SDS011;1611;49.394;11.136;2023-02-18T11:35:17;4.57;;;4.07;;
3197;SDS011;1611;49.394;11.136;2023-02-18T11:37:46;3.87;;;3.60;;
3197;SDS011;1611;49.394;11.136;2023-02-18T11:40:20;3.93;;;3.53;;
3197;SDS011;1611;49.394;11.136;2023-02-18T11:42:48;4.30;;;4.00;;
3197;SDS011;1611;49.394;11.136;2023-02-18T11:45:26;10.90;;;4.10;;
3197;SDS011;1611;49.394;11.136;2023-02-18T11:47:57;4.40;;;3.30;;
3197;SDS011;1611;49.394;11.136;2023-02-18T11:50:25;4.03;;;3.73;;
3197;SDS011;1611;49.394;11.136;2023-02-18T11:52:56;5.13;;;3.50;;
3197;SDS011;1611;49.394;11.136;2023-02-18T11:55:26;3.13;;;2.93;;
3197;SDS011;1611;49.394;11.136;2023-02-18T11:57:55;3.70;;;3.40;;
3197;SDS011;1611;49.394;11.136;2023-02-18T12:00:29;3.33;;;3.03;;
3197;SDS011;1611;49.394;11.136;2023-02-18T12:03:03;3.00;;;2.70;;
3197;SDS011;1611;49.394;11.136;2023-02-18T12:05:38;6.13;;;3.60;;
3197;SDS011;1611;49.394;11.136;2023-02-18T12:08:06;3.90;;;3.60;;
3197;SDS011;1611;49.394;11.136;2023-02-18T12:10:40;3.67;;;3.33;;
3197;SDS011;1611;49.394;11.136;2023-02-18T12:13:16;3.10;;;2.90;;
3197;SDS011;1611;49.394;11.136;2023-02-18T12:15:51;4.00;;;3.70;;
3197;SDS011;1611;49.394;11.136;2023-02-18T12:18:26;4.30;;;3.77;;
3197;SDS011;1611;49.394;11.136;2023-02-18T12:21:11;3.50;;;3.20;;
3197;SDS011;1611;49.394;11.136;2023-02-18T12:23:55;4.07;;;3.67;;
3197;SDS011;1611;49.394;11.136;2023-02-18T12:26:31;4.70;;;4.27;;
3197;SDS011;1611;49.394;11.136;2023-02-18T12:29:08;3.60;;;3.40;;
3197;SDS011;1611;49.394;11.136;2023-02-18T12:32:01;3.83;;;3.53;;
3197;SDS011;1611;49.394;11.136;2023-02-18T12:34:40;9.53;;;3.93;;
3197;SDS011;1611;49.394;11.136;2023-02-18T12:37:19;3.50;;;3.30;;
3197;SDS011;1611;49.394;11.136;2023-02-18T12:40:00;3.17;;;3.03;;
3197;SDS011;1611;49.394;11.136;2023-02-18T12:42:45;3.50;;;3.30;;
3197;SDS011;1611;49.394;11.136;2023-02-18T12:48:13;7.63;;;2.67;;
3197;SDS011;1611;49.394;11.136;2023-02-18T12:51:08;3.20;;;3.00;;
3197;SDS011;1611;49.394;11.136;2023-02-18T12:56:51;2.07;;;2.07;;
3197;SDS011;1611;49.394;11.136;2023-02-18T12:59:46;2.83;;;2.50;;
3197;SDS011;1611;49.394;11.136;2023-02-18T13:02:29;4.60;;;2.73;;
3197;SDS011;1611;49.394;11.136;2023-02-18T13:05:10;2.23;;;2.13;;
3197;SDS011;1611;49.394;11.136;2023-02-18T13:07:49;2.47;;;2.30;;
3197;SDS011;1611;49.394;11.136;2023-02-18T13:10:38;2.57;;;2.47;;
3197;SDS011;1611;49.394;11.136;2023-02-18T13:13:12;11.67;;;2.63;;
3197;SDS011;1611;49.394;11.136;2023-02-18T13:15:45;4.57;;;4.27;;
3197;SDS011;1611;49.394;11.136;2023-02-18T13:18:17;2.67;;;2.43;;
3197;SDS011;1611;49.394;11.136;2023-02-18T13:20:48;6.60;;;5.40;;
3197;SDS011;1611;49.394;11.136;2023-02-18T13:23:20;7.63;;;4.83;;
3197;SDS011;1611;49.394;11.136;2023-02-18T13:25:50;3.33;;;3.13;;
3197;SDS011;1611;49.394;11.136;2023-02-18T13:28:22;3.60;;;3.30;;
3197;SDS011;1611;49.394;11.136;2023-02-18T13:30:57;3.43;;;3.23;;
3197;SDS011;1611;49.394;11.136;2023-02-18T13:33:35;3.33;;;3.03;;
3197;SDS011;1611;49.394;11.136;2023-02-18T13:36:11;4.23;;;3.37;;
3197;SDS011;1611;49.394;11.136;2023-02-18T13:38:51;4.10;;;3.70;;
3197;SDS011;1611;49.394;11.136;2023-02-18T13:41:24;3.17;;;2.90;;
3197;SDS011;1611;49.394;11.136;2023-02-18T13:43:52;3.20;;;2.97;;
3197;SDS011;1611;49.394;11.136;2023-02-18T13:46:21;4.93;;;3.13;;
3197;SDS011;1611;49.394;11.136;2023-02-18T13:48:49;3.00;;;2.80;;
3197;SDS011;1611;49.394;11.136;2023-02-18T13:51:26;3.50;;;3.30;;
3197;SDS011;1611;49.394;11.136;2023-02-18T13:53:58;6.67;;;3.30;;
3197;SDS011;1611;49.394;11.136;2023-02-18T13:56:27;5.33;;;2.77;;
3197;SDS011;1611;49.394;11.136;2023-02-18T13:58:58;5.37;;;3.07;;
3197;SDS011;1611;49.394;11.136;2023-02-18T14:04:33;5.60;;;3.60;;
3197;SDS011;1611;49.394;11.136;2023-02-18T14:10:04;3.00;;;2.90;;
3197;SDS011;1611;49.394;11.136;2023-02-18T14:12:59;6.67;;;3.30;;
3197;SDS011;1611;49.394;11.136;2023-02-18T14:15:51;3.20;;;3.00;;
3197;SDS011;1611;49.394;11.136;2023-02-18T14:18:23;4.10;;;3.80;;
3197;SDS011;1611;49.394;11.136;2023-02-18T14:21:03;5.90;;;3.73;;
3197;SDS011;1611;49.394;11.136;2023-02-18T14:23:43;3.60;;;3.40;;
3197;SDS011;1611;49.394;11.136;2023-02-18T14:26:27;4.10;;;3.17;;
3197;SDS011;1611;49.394;11.136;2023-02-18T14:29:00;3.40;;;3.00;;
3197;SDS011;1611;49.394;11.136;2023-02-18T14:31:35;3.27;;;2.80;;
3197;SDS011;1611;49.394;11.136;2023-02-18T14:37:22;6.43;;;3.13;;
3197;SDS011;1611;49.394;11.136;2023-02-18T14:40:16;3.33;;;2.97;;
3197;SDS011;1611;49.394;11.136;2023-02-18T14:43:03;2.63;;;2.53;;
3197;SDS011;1611;49.394;11.136;2023-02-18T14:45:52;3.60;;;2.97;;
3197;SDS011;1611;49.394;11.136;2023-02-18T14:48:34;3.33;;;3.13;;
3197;SDS011;1611;49.394;11.136;2023-02-18T14:51:09;2.97;;;2.77;;
3197;SDS011;1611;49.394;11.136;2023-02-18T14:53:42;5.33;;;2.80;;
3197;SDS011;1611;49.394;11.136;2023-02-18T14:56:11;3.23;;;3.03;;
3197;SDS011;1611;49.394;11.136;2023-02-18T14:58:41;3.27;;;3.13;;
3197;SDS011;1611;49.394;11.136;2023-02-18T15:01:15;4.23;;;2.90;;
3197;SDS011;1611;49.394;11.136;2023-02-18T15:03:45;3.13;;;2.70;;
3197;SDS011;1611;49.394;11.136;2023-02-18T15:06:27;3.27;;;2.97;;
3197;SDS011;1611;49.394;11.136;2023-02-18T15:08:55;3.30;;;3.10;;
3197;SDS011;1611;49.394;11.136;2023-02-18T15:11:23;2.50;;;2.40;;
3197;SDS011;1611;49.394;11.136;2023-02-18T15:13:56;2.83;;;2.63;;
3197;SDS011;1611;49.394;11.136;2023-02-18T15:16:25;2.40;;;2.30;;
3197;SDS011;1611;49.394;11.136;2023-02-18T15:18:56;2.90;;;2.80;;
3197;SDS011;1611;49.394;11.136;2023-02-18T15:21:27;3.30;;;3.00;;
3197;SDS011;1611;49.394;11.136;2023-02-18T15:23:56;4.80;;;3.50;;
3197;SDS011;1611;49.394;11.136;2023-02-18T15:26:30;3.67;;;3.30;;
3197;SDS011;1611;49.394;11.136;2023-02-18T15:28:58;2.50;;;2.40;;
3197;SDS011;1611;49.394;11.136;2023-02-18T15:31:26;2.60;;;2.40;;
3197;SDS011;1611;49.394;11.136;2023-02-18T15:33:54;3.97;;;2.90;;
3197;SDS011;1611;49.394;11.136;2023-02-18T15:36:24;3.10;;;2.90;;
3197;SDS011;1611;49.394;11.136;2023-02-18T15:38:52;3.33;;;3.13;;
3197;SDS011;1611;49.394;11.136;2023-02-18T15:41:21;3.60;;;3.07;;
3197;SDS011;1611;49.394;11.136;2023-02-18T15:43:53;3.60;;;3.30;;
3197;SDS011;1611;49.394;11.136;2023-02-18T15:46:21;3.43;;;3.20;;
3197;SDS011;1611;49.394;11.136;2023-02-18T15:48:50;13.03;;;6.10;;
3197;SDS011;1611;49.394;11.136;2023-02-18T15:51:20;4.33;;;3.93;;